Time;durP1;ratioP1;P1;durP2;ratioP2;P2;SDS_P1;SDS_P2;PMS_P1;PMS_P2;Temp;Humidity;BMP_temperature;BMP_pressure;BME280_temperature;BME280_humidity;BME280_pressure;Samples;Min_cycle;Max_cycle;Signal;HPM_P1;HPM_P2
2021/10/01 00:01:56;;;;;;;2.83;2.63;;;15.20;99.90;;;;;;4896577;29;20051;-79
2021/10/01 00:04:24;;;;;;;3.28;3.08;;;15.20;99.90;;;;;;4896579;29;20047;-81
2021/10/01 00:06:52;;;;;;;2.00;1.90;;;15.10;99.90;;;;;;4879522;29;20052;-82
2021/10/01 00:09:20;;;;;;;2.08;1.98;;;15.00;99.90;;;;;;4897599;29;20409;-79
2021/10/01 00:11:51;;;;;;;2.22;2.05;;;15.00;99.90;;;;;;4899904;29;20404;-81
2021/10/01 00:14:24;;;;;;;2.33;2.13;;;15.00;99.90;;;;;;4899731;29;20461;-82
2021/10/01 00:16:53;;;;;;;2.70;2.53;;;15.00;99.90;;;;;;4900087;29;20051;-79
2021/10/01 00:19:21;;;;;;;2.40;2.20;;;15.00;99.90;;;;;;4900282;29;20051;-79
2021/10/01 00:21:49;;;;;;;2.42;2.22;;;15.00;99.90;;;;;;4910387;29;20036;-81
2021/10/01 00:24:17;;;;;;;3.17;2.97;;;14.90;99.90;;;;;;4920933;29;20044;-80
2021/10/01 00:26:44;;;;;;;2.80;2.60;;;15.00;99.90;;;;;;4937707;29;20039;-79
2021/10/01 00:29:14;;;;;;;2.10;2.00;;;15.00;99.90;;;;;;4936034;29;20054;-79
2021/10/01 00:31:45;;;;;;;2.38;2.17;;;15.00;99.90;;;;;;4920946;29;20055;-80
2021/10/01 00:34:13;;;;;;;3.35;3.05;;;14.90;99.90;;;;;;4937542;29;20039;-79
2021/10/01 00:36:40;;;;;;;3.03;2.60;;;14.80;99.90;;;;;;4937600;29;20044;-79
2021/10/01 00:39:08;;;;;;;2.38;2.17;;;14.90;99.90;;;;;;4937708;29;20040;-79
2021/10/01 00:41:36;;;;;;;2.17;2.08;;;14.90;99.90;;;;;;4936901;29;20054;-77
2021/10/01 00:44:05;;;;;;;2.53;2.33;;;14.90;99.90;;;;;;4937265;29;20118;-81
2021/10/01 00:46:32;;;;;;;2.42;2.22;;;14.90;99.90;;;;;;4937415;29;20414;-80
2021/10/01 00:49:00;;;;;;;2.35;2.15;;;14.90;99.90;;;;;;4936974;29;20391;-85
2021/10/01 00:51:28;;;;;;;2.30;2.10;;;14.90;99.90;;;;;;4937234;29;20039;-82
2021/10/01 00:53:55;;;;;;;1.90;1.80;;;14.90;99.90;;;;;;4937209;29;20458;-80
2021/10/01 00:56:24;;;;;;;2.75;2.55;;;15.00;99.90;;;;;;4936506;29;20046;-80
2021/10/01 00:58:51;;;;;;;2.83;2.63;;;14.90;99.90;;;;;;4920210;29;20055;-82
2021/10/01 01:01:19;;;;;;;2.10;2.00;;;14.90;99.90;;;;;;4936978;29;20070;-80
2021/10/01 01:03:56;;;;;;;2.10;2.00;;;14.90;99.90;;;;;;4936871;29;20095;-79
2021/10/01 01:06:27;;;;;;;2.25;2.08;;;14.90;99.90;;;;;;4936702;29;20043;-79
2021/10/01 01:09:35;;;;;;;5.32;4.13;;;14.90;99.90;;;;;;4936827;29;20048;-79
2021/10/01 01:12:08;;;;;;;2.20;2.10;;;15.00;99.90;;;;;;4907152;29;20052;-82
2021/10/01 01:14:45;;;;;;;2.50;2.30;;;15.00;99.90;;;;;;4936683;29;20511;-81
2021/10/01 01:17:23;;;;;;;2.42;2.22;;;14.90;99.90;;;;;;4936621;29;20412;-82
2021/10/01 01:19:59;;;;;;;2.50;2.30;;;14.90;99.90;;;;;;4936801;29;20052;-80
2021/10/01 01:22:38;;;;;;;2.00;1.90;;;14.90;99.90;;;;;;4927182;29;20051;-80
2021/10/01 01:25:20;;;;;;;3.22;3.03;;;15.00;99.90;;;;;;4900669;29;20048;-79
2021/10/01 01:27:56;;;;;;;2.05;1.95;;;15.00;99.90;;;;;;4917296;29;20045;-79
2021/10/01 01:30:25;;;;;;;2.38;2.17;;;14.80;99.90;;;;;;4897125;29;20546;-78
2021/10/01 01:32:58;;;;;;;2.40;2.20;;;14.90;99.90;;;;;;4917114;29;20045;-82
2021/10/01 01:35:31;;;;;;;2.75;2.50;;;15.00;99.90;;;;;;4917612;29;20047;-80
2021/10/01 01:38:09;;;;;;;1.90;1.80;;;15.00;99.90;;;;;;4917352;29;20051;-81
2021/10/01 01:40:44;;;;;;;2.10;2.00;;;15.00;99.90;;;;;;4916925;29;20040;-80
2021/10/01 01:43:13;;;;;;;2.30;2.15;;;14.90;99.90;;;;;;4917487;29;20044;-81
2021/10/01 01:45:44;;;;;;;2.40;2.20;;;15.00;99.90;;;;;;4917223;29;20068;-79
2021/10/01 01:48:13;;;;;;;3.10;2.55;;;15.00;99.90;;;;;;4900512;29;20111;-81
2021/10/01 01:50:42;;;;;;;2.00;1.90;;;15.00;99.90;;;;;;4900157;29;20575;-80
2021/10/01 01:53:12;;;;;;;2.05;1.95;;;14.90;99.90;;;;;;4917032;29;20040;-80
2021/10/01 01:55:41;;;;;;;2.63;2.30;;;14.90;99.90;;;;;;4916457;29;20048;-77
2021/10/01 01:58:08;;;;;;;2.47;2.28;;;14.90;99.90;;;;;;4917111;29;20389;-80
2021/10/01 02:00:36;;;;;;;2.65;2.45;;;14.90;99.90;;;;;;4916521;29;20047;-80
2021/10/01 02:03:05;;;;;;;2.10;2.00;;;14.90;99.90;;;;;;4900074;29;20036;-81
2021/10/01 02:05:34;;;;;;;2.10;2.00;;;14.90;99.90;;;;;;4916873;29;20086;-82
2021/10/01 02:08:03;;;;;;;2.35;2.15;;;14.90;99.90;;;;;;4916634;29;20067;-80
2021/10/01 02:10:32;;;;;;;2.10;2.00;;;14.90;99.90;;;;;;4916398;29;20453;-80
2021/10/01 02:13:02;;;;;;;2.60;2.40;;;14.90;99.90;;;;;;4917005;29;20040;-81
2021/10/01 02:15:34;;;;;;;2.60;2.40;;;14.90;99.90;;;;;;4916115;29;20074;-82
2021/10/01 02:18:03;;;;;;;2.10;2.00;;;14.80;99.90;;;;;;4899886;29;20562;-80
2021/10/01 02:20:34;;;;;;;2.15;2.03;;;14.80;99.90;;;;;;4916767;29;20675;-81
2021/10/01 02:23:02;;;;;;;;;;;14.80;99.90;;;;;;4911576;29;20399;-79
2021/10/01 02:28:28;;;;;;;2.10;2.00;;;14.80;99.90;;;;;;4930092;29;20109;-80
2021/10/01 02:30:56;;;;;;;2.00;1.90;;;14.80;99.90;;;;;;4935246;29;20063;-82
2021/10/01 02:33:34;;;;;;;2.30;2.10;;;14.80;99.90;;;;;;4935161;29;20399;-79
2021/10/01 02:36:02;;;;;;;2.22;2.10;;;14.80;99.90;;;;;;4935411;29;20400;-81
2021/10/01 02:38:29;;;;;;;2.00;1.90;;;14.80;99.90;;;;;;4935276;29;20056;-81
2021/10/01 02:40:57;;;;;;;2.22;2.10;;;14.80;99.90;;;;;;4927261;29;20047;-80
2021/10/01 02:43:24;;;;;;;2.85;2.63;;;14.70;99.90;;;;;;4935258;29;20044;-84
2021/10/01 02:45:52;;;;;;;2.25;2.10;;;14.80;99.90;;;;;;4917599;29;20403;-80
2021/10/01 02:48:20;;;;;;;2.40;2.20;;;14.70;99.90;;;;;;4935435;29;20127;-85
2021/10/01 02:50:51;;;;;;;2.28;2.10;;;14.70;99.90;;;;;;4935468;29;20058;-81
2021/10/01 02:53:35;;;;;;;3.03;2.72;;;14.70;99.90;;;;;;4934500;29;20042;-80
2021/10/01 02:56:13;;;;;;;2.38;2.17;;;14.70;99.90;;;;;;4934684;29;20134;-79
2021/10/01 02:58:45;;;;;;;2.10;2.00;;;14.60;99.90;;;;;;4915985;29;20040;-82
2021/10/01 03:01:15;;;;;;;2.42;2.22;;;14.60;99.90;;;;;;4934487;29;20511;-81
2021/10/01 03:03:45;;;;;;;2.30;2.10;;;14.60;99.90;;;;;;4934635;29;20050;-82
2021/10/01 03:06:13;;;;;;;2.60;2.40;;;14.50;99.90;;;;;;4934636;29;20054;-76
2021/10/01 03:08:41;;;;;;;3.25;2.35;;;14.50;99.90;;;;;;4934771;29;20403;-78
2021/10/01 03:11:13;;;;;;;2.10;2.00;;;14.50;99.90;;;;;;4934504;29;20051;-80
2021/10/01 03:13:44;;;;;;;2.25;2.10;;;14.50;99.90;;;;;;4916321;29;20467;-78
2021/10/01 03:16:12;;;;;;;2.13;2.03;;;14.50;99.90;;;;;;4934861;29;20135;-77
2021/10/01 03:18:40;;;;;;;2.70;2.50;;;14.50;99.90;;;;;;4934829;29;20051;-79
2021/10/01 03:21:08;;;;;;;2.67;2.47;;;14.50;99.90;;;;;;4934594;29;20044;-77
2021/10/01 03:23:36;;;;;;;2.15;2.03;;;14.50;99.90;;;;;;4919926;29;20512;-79
2021/10/01 03:26:04;;;;;;;2.40;2.20;;;14.40;99.90;;;;;;4915416;29;20044;-80
2021/10/01 03:28:32;;;;;;;2.10;2.00;;;14.40;99.90;;;;;;4915584;29;20055;-81
2021/10/01 03:30:59;;;;;;;2.40;2.20;;;14.50;99.90;;;;;;4907879;29;20534;-79
2021/10/01 03:33:28;;;;;;;2.40;2.20;;;14.40;99.90;;;;;;4916123;29;20119;-83
2021/10/01 03:35:55;;;;;;;2.35;2.15;;;14.40;99.90;;;;;;4916190;29;20369;-79
2021/10/01 03:38:23;;;;;;;2.10;2.00;;;14.40;99.90;;;;;;4915495;29;20044;-78
2021/10/01 03:40:51;;;;;;;2.40;2.20;;;14.40;99.90;;;;;;4915794;29;20059;-79
2021/10/01 03:43:37;;;;;;;2.10;2.00;;;14.40;99.90;;;;;;4915790;29;20602;-83
2021/10/01 03:46:05;;;;;;;2.67;2.47;;;14.40;99.90;;;;;;4918964;29;20075;-79
2021/10/01 03:48:32;;;;;;;2.30;2.10;;;14.40;99.90;;;;;;4919486;29;20048;-79
2021/10/01 03:51:00;;;;;;;2.10;2.00;;;14.40;99.90;;;;;;4919131;29;20044;-80
2021/10/01 03:53:27;;;;;;;2.45;2.25;;;14.40;99.90;;;;;;4919253;29;20150;-80
2021/10/01 03:55:54;;;;;;;2.30;2.10;;;14.40;99.90;;;;;;4919157;29;20411;-80
2021/10/01 03:58:22;;;;;;;2.35;2.17;;;14.40;99.90;;;;;;4919365;29;20051;-78
2021/10/01 04:00:49;;;;;;;2.30;2.10;;;14.40;99.90;;;;;;4919055;29;20058;-79
2021/10/01 04:03:16;;;;;;;2.20;2.10;;;14.40;99.90;;;;;;4919439;29;20084;-81
2021/10/01 04:05:44;;;;;;;2.75;2.53;;;14.40;99.90;;;;;;4919064;29;20162;-77
2021/10/01 04:08:13;;;;;;;2.30;2.10;;;14.50;99.90;;;;;;4893254;29;20055;-79
2021/10/01 04:10:40;;;;;;;2.40;2.20;;;14.50;99.90;;;;;;4917117;29;20415;-82
2021/10/01 04:13:08;;;;;;;2.30;2.10;;;14.50;99.90;;;;;;4919000;29;20412;-81
2021/10/01 04:15:36;;;;;;;2.25;2.10;;;14.50;99.90;;;;;;4919024;29;20052;-81
2021/10/01 04:18:04;;;;;;;2.50;2.30;;;14.50;99.90;;;;;;4918799;29;20040;-85
2021/10/01 04:20:34;;;;;;;2.95;2.70;;;14.50;99.90;;;;;;4898895;29;20508;-85
2021/10/01 04:23:01;;;;;;;2.30;2.10;;;14.40;99.90;;;;;;4927046;29;20043;-80
2021/10/01 04:25:30;;;;;;;2.38;2.17;;;14.40;99.90;;;;;;4937987;29;20395;-78
2021/10/01 04:27:58;;;;;;;2.50;2.30;;;14.40;99.90;;;;;;4937403;29;20407;-80
2021/10/01 04:30:25;;;;;;;2.47;2.28;;;14.40;99.90;;;;;;4931748;29;20060;-80
2021/10/01 04:33:12;;;;;;;2.80;2.60;;;14.50;99.90;;;;;;4917528;29;20044;-78
2021/10/01 04:35:41;;;;;;;2.10;2.00;;;14.50;99.90;;;;;;4901695;29;20534;-87
2021/10/01 04:38:08;;;;;;;2.92;2.72;;;14.50;99.90;;;;;;4918766;29;20429;-84
2021/10/01 04:40:35;;;;;;;2.95;2.75;;;14.50;99.90;;;;;;4918709;29;20044;-86
2021/10/01 04:43:03;;;;;;;2.30;2.10;;;14.50;99.90;;;;;;4919404;29;20166;-80
2021/10/01 04:45:31;;;;;;;2.13;2.03;;;14.50;99.90;;;;;;4919025;29;20046;-85
2021/10/01 04:47:58;;;;;;;2.75;2.55;;;14.50;99.90;;;;;;4911473;29;20048;-82
2021/10/01 04:50:26;;;;;;;2.63;2.42;;;14.60;99.90;;;;;;4919380;29;20043;-81
2021/10/01 04:52:53;;;;;;;2.10;2.00;;;14.60;99.90;;;;;;4919251;29;20391;-85
2021/10/01 04:55:20;;;;;;;2.10;2.00;;;14.60;99.90;;;;;;4917612;29;20448;-79
2021/10/01 04:57:49;;;;;;;2.72;2.53;;;14.60;99.90;;;;;;4918155;29;20055;-83
2021/10/01 05:00:17;;;;;;;3.67;3.38;;;14.60;99.90;;;;;;4918843;29;20044;-86
2021/10/01 05:02:44;;;;;;;2.10;2.00;;;14.60;99.90;;;;;;4899637;29;20041;-80
2021/10/01 05:05:11;;;;;;;2.00;1.90;;;14.60;99.90;;;;;;4918152;29;20128;-84
2021/10/01 05:07:38;;;;;;;2.10;2.00;;;14.70;99.90;;;;;;4918256;29;20044;-81
2021/10/01 05:10:07;;;;;;;2.25;2.08;;;14.70;99.90;;;;;;4917704;29;20419;-81
2021/10/01 05:12:34;;;;;;;4.13;3.83;;;14.70;99.90;;;;;;4918289;29;20044;-80
2021/10/01 05:15:02;;;;;;;3.53;3.22;;;14.70;99.90;;;;;;4901036;29;20075;-78
2021/10/01 05:17:29;;;;;;;5.40;4.93;;;14.80;99.90;;;;;;4910476;29;20153;-79
2021/10/01 05:19:57;;;;;;;2.60;2.40;;;14.80;99.90;;;;;;4899086;29;20044;-81
2021/10/01 05:22:24;;;;;;;3.72;3.42;;;14.80;99.90;;;;;;4909160;29;20044;-80
2021/10/01 05:24:51;;;;;;;5.28;4.82;;;14.80;99.90;;;;;;4935082;29;20052;-80
2021/10/01 05:27:19;;;;;;;3.45;3.15;;;14.90;99.90;;;;;;4934299;29;20067;-79
2021/10/01 05:29:46;;;;;;;2.90;2.70;;;14.90;99.90;;;;;;4934555;29;20051;-79
2021/10/01 05:32:13;;;;;;;2.40;2.20;;;14.80;99.90;;;;;;4935118;29;20048;-78
2021/10/01 05:34:41;;;;;;;2.00;1.90;;;14.80;99.90;;;;;;4903576;29;20045;-80
2021/10/01 05:37:08;;;;;;;2.83;2.63;;;14.70;99.90;;;;;;4897781;29;20047;-82
2021/10/01 05:39:35;;;;;;;2.25;2.10;;;14.70;99.90;;;;;;4899324;29;20045;-83
2021/10/01 05:42:03;;;;;;;2.38;2.17;;;14.70;99.90;;;;;;4915607;29;20048;-78
2021/10/01 05:44:31;;;;;;;2.17;2.05;;;14.70;99.90;;;;;;4917187;29;20048;-81
2021/10/01 05:47:02;;;;;;;2.20;2.10;;;14.80;99.90;;;;;;4901175;29;20095;-84
2021/10/01 05:49:44;;;;;;;3.30;2.38;;;14.90;99.90;;;;;;4899853;29;20057;-84
2021/10/01 05:54:53;;;;;;;2.63;2.42;;;14.80;99.90;;;;;;4917264;29;20076;-85
2021/10/01 05:57:21;;;;;;;3.67;3.33;;;14.90;99.90;;;;;;4918766;29;20400;-86
2021/10/01 05:59:48;;;;;;;2.47;2.28;;;14.70;99.90;;;;;;4919412;29;20131;-88
2021/10/01 06:02:18;;;;;;;2.40;2.20;;;14.50;99.90;;;;;;4918695;29;20040;-86
2021/10/01 06:04:47;;;;;;;;;;;14.70;99.90;;;;;;4885186;29;20051;-85
2021/10/01 06:07:15;;;;;;;2.20;2.10;;;14.60;99.90;;;;;;4897767;29;19930;-86
2021/10/01 06:09:55;;;;;;;2.10;2.00;;;14.50;99.90;;;;;;4898853;29;20073;-87
2021/10/01 06:12:50;;;;;;;2.95;2.75;;;14.70;99.90;;;;;;4888758;29;20183;-86
2021/10/01 06:15:18;;;;;;;2.63;2.42;;;14.50;99.90;;;;;;4897084;29;20099;-86
2021/10/01 06:17:46;;;;;;;13.85;3.35;;;14.70;99.90;;;;;;4912656;29;20428;-87
2021/10/01 06:20:13;;;;;;;2.20;2.05;;;14.90;99.90;;;;;;4879388;29;20436;-87
2021/10/01 06:22:53;;;;;;;2.10;2.00;;;14.80;99.90;;;;;;4927381;29;20043;-87
2021/10/01 06:25:31;;;;;;;2.10;2.00;;;14.80;99.90;;;;;;4915797;29;20127;-87
2021/10/01 06:27:58;;;;;;;2.42;2.22;;;14.30;99.90;;;;;;4915606;29;20408;-88
2021/10/01 06:34:09;;;;;;;5.88;3.20;;;14.70;99.90;;;;;;4934731;29;20044;-89
2021/10/01 06:36:38;;;;;;;2.78;2.58;;;14.70;99.90;;;;;;4916765;29;20040;-88
2021/10/01 06:40:11;;;;;;;3.28;2.95;;;14.70;99.90;;;;;;4917146;29;20466;-87
2021/10/01 06:42:48;;;;;;;4.07;3.75;;;14.40;99.90;;;;;;4918708;29;20039;-87
2021/10/01 06:45:28;;;;;;;2.15;2.03;;;14.30;99.90;;;;;;4934875;29;20403;-87
2021/10/01 08:19:55;;;;;;;2.22;2.08;;;16.50;99.90;;;;;;4898785;29;20052;-89
2021/10/01 08:22:37;;;;;;;1.95;1.85;;;16.20;99.90;;;;;;4891990;29;20054;-87
2021/10/01 08:28:53;;;;;;;2.60;2.40;;;16.20;99.90;;;;;;4857601;29;20097;-89
2021/10/01 08:40:44;;;;;;;1.90;1.80;;;16.60;99.90;;;;;;4860685;29;20033;-84
2021/10/01 08:47:26;;;;;;;1.85;1.75;;;16.70;99.90;;;;;;4862658;29;20579;-84
2021/10/01 08:49:57;;;;;;;1.70;1.60;;;17.30;99.90;;;;;;4861903;29;20102;-85
2021/10/01 08:52:27;;;;;;;1.60;1.50;;;17.60;99.90;;;;;;4862795;29;20041;-88
2021/10/01 08:54:55;;;;;;;8.52;2.50;;;18.10;99.90;;;;;;4860377;29;20041;-83
2021/10/01 08:57:48;;;;;;;2.10;1.98;;;18.30;99.90;;;;;;4845392;29;20395;-85
2021/10/01 09:00:17;;;;;;;1.50;1.40;;;18.30;99.90;;;;;;4840055;29;20053;-84
2021/10/01 09:02:46;;;;;;;1.60;1.50;;;18.30;99.90;;;;;;4845488;29;20121;-86
2021/10/01 09:05:15;;;;;;;1.40;1.30;;;18.00;99.90;;;;;;4861533;29;20078;-85
2021/10/01 09:07:42;;;;;;;1.40;1.30;;;17.40;99.90;;;;;;4830465;29;20073;-87
2021/10/01 09:10:13;;;;;;;1.40;1.30;;;17.90;99.90;;;;;;4861709;29;20045;-86
2021/10/01 09:12:49;;;;;;;1.40;1.30;;;18.20;99.90;;;;;;4862974;29;20046;-87
2021/10/01 09:15:21;;;;;;;1.48;1.38;;;18.30;99.90;;;;;;4845066;29;20046;-86
2021/10/01 09:17:50;;;;;;;1.50;1.40;;;18.20;99.90;;;;;;4844932;29;20045;-79
2021/10/01 09:20:24;;;;;;;1.70;1.60;;;17.70;99.90;;;;;;4830218;29;20073;-86
2021/10/01 09:23:11;;;;;;;1.40;1.30;;;17.40;99.90;;;;;;4869969;29;20051;-86
2021/10/01 09:25:38;;;;;;;1.40;1.30;;;17.80;99.90;;;;;;4863589;29;20044;-89
2021/10/01 09:28:14;;;;;;;1.77;1.67;;;18.10;99.90;;;;;;4861056;29;20409;-84
2021/10/01 09:30:47;;;;;;;1.50;1.40;;;17.90;99.90;;;;;;4861142;29;20049;-83
2021/10/01 09:33:19;;;;;;;1.58;1.48;;;18.00;99.90;;;;;;4880734;29;20442;-83
2021/10/01 09:35:47;;;;;;;1.50;1.40;;;17.60;99.90;;;;;;4848341;29;20051;-85
2021/10/01 09:38:40;;;;;;;1.40;1.30;;;17.70;99.90;;;;;;4880458;29;20085;-85
2021/10/01 09:41:26;;;;;;;1.40;1.30;;;17.90;99.90;;;;;;4848459;29;20482;-86
2021/10/01 09:44:13;;;;;;;31.23;2.85;;;17.80;99.90;;;;;;4864245;29;20041;-87
2021/10/01 09:46:50;;;;;;;1.77;1.67;;;18.30;99.90;;;;;;4863916;29;20148;-87
2021/10/01 09:50:08;;;;;;;4.30;2.85;;;18.40;99.90;;;;;;4848767;29;20056;-87
2021/10/01 09:53:02;;;;;;;1.40;1.30;;;17.90;99.90;;;;;;4880117;29;20105;-89
2021/10/01 09:55:35;;;;;;;1.70;1.60;;;17.90;99.90;;;;;;4863601;29;20055;-86
2021/10/01 09:58:06;;;;;;;1.67;1.58;;;17.60;99.90;;;;;;4878433;29;20125;-88
2021/10/01 10:00:54;;;;;;;1.77;1.67;;;17.30;99.90;;;;;;4850996;29;20089;-86
2021/10/01 10:12:48;;;;;;;1.85;1.75;;;17.70;99.90;;;;;;4820841;29;20102;-83
2021/10/01 10:15:18;;;;;;;1.65;1.55;;;17.60;99.90;;;;;;4818221;29;20213;-84
2021/10/01 10:17:51;;;;;;;1.55;1.45;;;17.60;99.90;;;;;;4830633;29;20041;-84
2021/10/01 10:20:35;;;;;;;1.95;1.85;;;17.70;99.90;;;;;;4843335;29;20080;-84
2021/10/01 10:23:11;;;;;;;1.67;1.58;;;18.00;99.90;;;;;;4857503;29;20037;-86
2021/10/01 10:25:44;;;;;;;1.63;1.52;;;18.20;99.90;;;;;;4842449;29;20140;-85
2021/10/01 10:28:41;;;;;;;1.70;1.60;;;18.60;99.90;;;;;;4827095;29;20056;-94
2021/10/01 10:31:26;;;;;;;1.40;1.30;;;18.80;99.90;;;;;;4842571;29;20063;-86
2021/10/01 10:37:15;;;;;;;1.40;1.30;;;18.00;99.90;;;;;;4896966;29;20051;-85
2021/10/01 10:44:01;;;;;;;2.88;2.63;;;18.70;99.90;;;;;;4914564;29;20449;-81
2021/10/01 10:46:38;;;;;;;1.88;1.75;;;18.50;99.90;;;;;;4896012;29;20046;-83
2021/10/01 10:49:22;;;;;;;1.40;1.30;;;18.40;99.90;;;;;;4914321;29;20044;-81
2021/10/01 10:54:40;;;;;;;1.48;1.38;;;17.60;99.90;;;;;;4896641;29;20044;-83
2021/10/01 10:57:22;;;;;;;2.00;1.90;;;17.60;99.90;;;;;;4899574;29;20045;-90
2021/10/01 11:01:00;;;;;;;1.50;1.40;;;18.10;99.90;;;;;;4900162;29;20050;-90
2021/10/01 11:04:24;;;;;;;1.60;1.50;;;17.80;99.90;;;;;;4898588;29;20059;-90
2021/10/01 11:06:52;;;;;;;1.83;1.73;;;17.80;99.90;;;;;;4882921;29;20052;-83
2021/10/01 11:13:18;;;;;;;1.40;1.30;;;17.90;99.90;;;;;;4916184;29;20055;-83
2021/10/01 11:16:08;;;;;;;1.50;1.40;;;17.90;99.90;;;;;;4914431;29;20424;-84
2021/10/01 11:18:57;;;;;;;1.60;1.50;;;17.70;99.90;;;;;;4896764;29;20139;-83
2021/10/01 11:21:42;;;;;;;1.98;1.88;;;17.50;99.90;;;;;;4881947;29;20036;-86
2021/10/01 11:24:21;;;;;;;1.90;1.80;;;17.30;99.90;;;;;;4883132;29;20044;-81
2021/10/01 11:26:50;;;;;;;1.70;1.60;;;17.70;99.90;;;;;;4881664;29;20453;-82
2021/10/01 11:29:34;;;;;;;1.70;1.60;;;17.70;99.90;;;;;;4895385;29;20056;-86
2021/10/01 11:32:04;;;;;;;2.05;1.95;;;17.40;99.90;;;;;;4879719;29;20059;-87
2021/10/01 11:34:40;;;;;;;1.77;1.67;;;17.30;99.90;;;;;;4863934;29;20047;-85
2021/10/01 11:37:31;;;;;;;2.00;1.90;;;17.50;99.90;;;;;;4896344;29;20084;-86
2021/10/01 11:40:01;;;;;;;1.90;1.80;;;17.50;99.90;;;;;;4884507;29;20108;-87
2021/10/01 11:42:29;;;;;;;1.67;1.58;;;17.80;99.90;;;;;;4896934;29;20048;-86
2021/10/01 11:45:05;;;;;;;2.15;2.05;;;17.80;99.90;;;;;;4872065;29;20075;-84
2021/10/01 11:47:34;;;;;;;1.70;1.60;;;17.80;99.90;;;;;;4879460;29;20151;-86
2021/10/01 11:50:06;;;;;;;1.60;1.50;;;17.90;99.90;;;;;;4865593;29;20457;-88
2021/10/01 11:52:43;;;;;;;1.60;1.50;;;17.60;99.90;;;;;;4880880;29;20045;-87
2021/10/01 11:56:16;;;;;;;1.92;1.83;;;17.60;99.90;;;;;;4880414;29;20084;-87
2021/10/01 11:58:43;;;;;;;2.53;2.25;;;17.90;99.90;;;;;;4879412;29;20403;-85
2021/10/01 12:01:24;;;;;;;2.03;1.92;;;17.80;99.90;;;;;;4864404;29;20053;-85
2021/10/01 12:04:31;;;;;;;1.60;1.50;;;17.70;99.90;;;;;;4972183;23;20144;-86
2021/10/01 12:07:25;;;;;;;1.80;1.70;;;18.00;99.90;;;;;;4880756;29;20049;-88
2021/10/01 12:10:08;;;;;;;1.60;1.50;;;18.00;99.90;;;;;;4858567;29;20048;-87
2021/10/01 12:13:32;;;;;;;2.65;2.08;;;18.00;99.90;;;;;;4881967;29;20055;-90
2021/10/01 12:16:11;;;;;;;1.92;1.83;;;18.30;99.90;;;;;;4880587;29;20135;-88
2021/10/01 12:18:57;;;;;;;1.40;1.30;;;18.70;99.90;;;;;;4882123;29;20049;-88
2021/10/01 12:21:31;;;;;;;1.70;1.60;;;18.90;99.90;;;;;;4884375;29;20119;-88
2021/10/01 12:24:13;;;;;;;1.40;1.30;;;18.80;99.90;;;;;;4911469;29;20074;-87
2021/10/01 12:26:44;;;;;;;4.00;3.67;;;18.90;99.90;;;;;;4887303;29;20072;-89
2021/10/01 12:29:25;;;;;;;1.40;1.30;;;18.50;99.90;;;;;;4901475;29;20048;-90
2021/10/01 12:31:56;;;;;;;1.70;1.60;;;18.80;99.90;;;;;;4921555;29;20131;-90
2021/10/01 12:35:01;;;;;;;1.40;1.30;;;18.90;99.90;;;;;;4899924;29;20041;-88
2021/10/01 12:37:37;;;;;;;2.28;2.13;;;19.00;99.90;;;;;;4915901;29;20055;-88
2021/10/01 12:40:12;;;;;;;2.65;2.08;;;18.90;99.90;;;;;;4900261;29;20041;-86
2021/10/01 12:42:58;;;;;;;1.70;1.60;;;19.10;99.90;;;;;;4900483;29;20407;-88
2021/10/01 12:45:26;;;;;;;1.30;1.20;;;18.80;99.90;;;;;;4884083;29;20136;-92
2021/10/01 12:47:55;;;;;;;1.27;1.17;;;18.70;99.90;;;;;;4887342;29;20051;-89
2021/10/01 12:50:33;;;;;;;1.92;1.83;;;18.50;99.90;;;;;;4920273;29;20104;-86
2021/10/01 12:53:08;;;;;;;1.30;1.20;;;18.70;99.90;;;;;;4899833;29;20045;-88
2021/10/01 12:55:36;;;;;;;1.38;1.27;;;18.50;99.90;;;;;;4900489;29;20056;-88
2021/10/01 12:58:20;;;;;;;1.75;1.58;;;18.80;99.90;;;;;;4901554;29;20115;-92
2021/10/01 13:00:54;;;;;;;1.67;1.58;;;18.80;99.90;;;;;;4903316;29;20156;-86
2021/10/01 13:03:27;;;;;;;1.40;1.30;;;18.80;99.90;;;;;;4898963;29;20060;-87
2021/10/01 13:05:55;;;;;;;1.75;1.65;;;18.70;99.90;;;;;;4902429;29;20052;-89
2021/10/01 13:08:23;;;;;;;1.40;1.30;;;18.80;99.90;;;;;;4881182;29;20226;-85
2021/10/01 13:10:53;;;;;;;1.40;1.30;;;18.60;99.90;;;;;;4882833;29;20053;-88
2021/10/01 13:13:40;;;;;;;1.67;1.58;;;18.60;99.90;;;;;;4864533;29;20056;-88
2021/10/01 13:16:12;;;;;;;1.70;1.60;;;18.40;99.90;;;;;;4842836;29;20048;-93
2021/10/01 13:19:15;;;;;;;1.85;1.73;;;18.40;99.90;;;;;;4987751;23;20051;-89
2021/10/01 13:21:56;;;;;;;2.17;2.05;;;18.30;99.90;;;;;;4960925;23;20504;-89
2021/10/01 13:24:27;;;;;;;1.50;1.40;;;18.30;99.90;;;;;;4864303;29;20045;-83
2021/10/01 13:26:55;;;;;;;1.60;1.50;;;18.50;99.90;;;;;;4862632;29;20041;-88
2021/10/01 13:29:22;;;;;;;1.50;1.40;;;18.40;99.90;;;;;;4865403;29;20037;-83
2021/10/01 13:31:53;;;;;;;1.52;1.42;;;18.20;99.90;;;;;;4863751;29;20489;-82
2021/10/01 13:34:23;;;;;;;1.67;1.58;;;18.10;99.90;;;;;;4863569;29;20072;-85
2021/10/01 13:36:50;;;;;;;1.67;1.58;;;18.10;99.90;;;;;;4848764;29;20148;-80
2021/10/01 13:39:18;;;;;;;1.70;1.60;;;18.10;99.90;;;;;;4864027;29;20443;-84
2021/10/01 13:41:45;;;;;;;2.05;1.95;;;18.10;99.90;;;;;;4883229;29;20045;-85
2021/10/01 13:44:14;;;;;;;1.40;1.30;;;18.20;99.90;;;;;;4887397;29;20044;-88
2021/10/01 13:46:42;;;;;;;1.50;1.40;;;18.20;99.90;;;;;;4886818;29;20072;-88
2021/10/01 13:49:09;;;;;;;6.93;3.15;;;18.40;99.90;;;;;;4889969;29;20055;-86
2021/10/01 13:51:37;;;;;;;1.60;1.50;;;18.20;99.90;;;;;;4892460;29;20044;-87
2021/10/01 13:54:05;;;;;;;2.60;2.40;;;18.30;99.90;;;;;;4905470;29;20076;-81
2021/10/01 13:56:32;;;;;;;2.15;2.05;;;18.40;99.90;;;;;;4901721;29;20068;-85
2021/10/01 13:58:59;;;;;;;2.08;1.98;;;18.30;99.90;;;;;;4868386;29;20052;-82
2021/10/01 14:01:28;;;;;;;2.95;2.60;;;18.20;99.90;;;;;;4899870;29;20131;-86
2021/10/01 14:03:56;;;;;;;1.73;1.63;;;18.40;99.90;;;;;;4900934;29;20453;-92
2021/10/01 14:06:23;;;;;;;1.63;1.52;;;18.40;99.90;;;;;;4899349;29;20473;-88
2021/10/01 14:08:50;;;;;;;1.30;1.20;;;18.40;99.90;;;;;;4887309;29;20119;-84
2021/10/01 14:11:38;;;;;;;1.50;1.40;;;18.50;99.90;;;;;;4881587;29;20052;-90
2021/10/01 14:14:05;;;;;;;1.50;1.40;;;18.50;99.90;;;;;;4900340;29;20040;-84
2021/10/01 14:16:33;;;;;;;1.40;1.30;;;18.60;99.90;;;;;;4897538;29;20045;-81
2021/10/01 14:19:01;;;;;;;1.40;1.30;;;18.50;99.90;;;;;;4881202;29;20040;-83
2021/10/01 14:21:28;;;;;;;2.10;2.00;;;18.30;99.90;;;;;;4864903;29;20401;-83
2021/10/01 14:23:56;;;;;;;2.45;2.25;;;18.40;99.90;;;;;;4898313;29;20112;-85
2021/10/01 14:26:26;;;;;;;1.40;1.30;;;18.50;99.90;;;;;;4880867;29;20058;-91
2021/10/01 14:28:54;;;;;;;2.65;1.92;;;18.50;99.90;;;;;;4878223;29;20405;-83
2021/10/01 14:31:22;;;;;;;2.10;1.95;;;18.70;99.90;;;;;;4878512;29;20494;-81
2021/10/01 14:33:49;;;;;;;2.08;1.88;;;18.70;99.90;;;;;;4880869;29;20401;-85
2021/10/01 14:36:17;;;;;;;2.03;1.92;;;18.30;99.90;;;;;;4876658;29;20470;-82
2021/10/01 14:38:45;;;;;;;1.65;1.55;;;18.20;99.90;;;;;;4880374;29;20575;-87
2021/10/01 14:41:13;;;;;;;2.45;2.00;;;18.30;99.90;;;;;;4879645;29;20048;-81
2021/10/01 14:43:43;;;;;;;1.45;1.35;;;18.40;99.90;;;;;;4883928;29;20047;-82
2021/10/01 14:46:11;;;;;;;1.50;1.40;;;18.40;99.90;;;;;;4895625;29;20100;-84
2021/10/01 14:48:38;;;;;;;1.40;1.30;;;18.20;99.90;;;;;;4880540;29;20286;-85
2021/10/01 14:51:06;;;;;;;1.42;1.33;;;18.20;99.90;;;;;;4879687;29;20040;-85
2021/10/01 14:53:33;;;;;;;1.70;1.60;;;18.30;99.90;;;;;;4880660;29;20044;-86
2021/10/01 14:56:02;;;;;;;1.30;1.20;;;18.20;99.90;;;;;;4896917;29;20100;-82
2021/10/01 14:58:33;;;;;;;1.42;1.33;;;18.10;99.90;;;;;;4880440;29;20032;-83
2021/10/01 15:01:00;;;;;;;;;;;18.10;99.90;;;;;;4864859;29;20081;-81
2021/10/01 15:03:28;;;;;;;1.85;1.75;;;18.10;99.90;;;;;;4881353;29;20009;-86
2021/10/01 15:05:55;;;;;;;2.20;2.00;;;18.10;99.90;;;;;;4858163;29;20044;-88
2021/10/01 15:08:23;;;;;;;3.35;3.05;;;18.10;99.90;;;;;;4863070;29;20467;-82
2021/10/01 15:10:51;;;;;;;1.50;1.40;;;18.20;99.90;;;;;;4864286;29;20109;-90
2021/10/01 15:13:19;;;;;;;2.13;1.92;;;18.30;99.90;;;;;;4848365;29;20105;-90
2021/10/01 15:15:46;;;;;;;1.50;1.40;;;18.10;99.90;;;;;;4864907;29;20049;-89
2021/10/01 15:18:14;;;;;;;1.50;1.40;;;18.10;99.90;;;;;;4864486;29;20055;-87
2021/10/01 15:20:42;;;;;;;4.53;3.58;;;18.10;99.90;;;;;;4877985;29;20476;-88
2021/10/01 15:23:14;;;;;;;2.38;2.17;;;18.10;99.90;;;;;;4847916;29;20088;-89
2021/10/01 15:25:42;;;;;;;1.60;1.50;;;18.20;99.90;;;;;;4848485;29;20049;-93
2021/10/01 15:28:12;;;;;;;1.42;1.33;;;18.10;99.90;;;;;;4863341;29;20080;-85
2021/10/01 15:30:40;;;;;;;1.75;1.65;;;18.10;99.90;;;;;;4862167;29;20049;-89
2021/10/01 15:33:09;;;;;;;1.85;1.75;;;18.20;99.90;;;;;;4878528;29;20087;-85
2021/10/01 15:35:36;;;;;;;2.00;1.90;;;18.00;99.90;;;;;;4894922;29;20617;-93
2021/10/01 15:38:05;;;;;;;1.70;1.60;;;18.00;99.90;;;;;;4865529;29;20128;-93
2021/10/01 15:40:35;;;;;;;1.80;1.70;;;18.10;99.90;;;;;;4885923;29;20124;-83